createdAt,value
2023-03-17T00:00:25.656Z,13.60
2023-03-17T00:03:23.603Z,17.00
2023-03-17T00:05:56.787Z,16.20
2023-03-17T00:08:31.818Z,14.00
2023-03-17T00:11:04.721Z,13.40
2023-03-17T00:13:37.197Z,15.00
2023-03-17T00:18:41.727Z,13.00
2023-03-17T00:21:17.104Z,15.40
2023-03-17T00:23:53.019Z,13.80
2023-03-17T00:26:26.747Z,11.60
2023-03-17T00:28:59.080Z,12.80
2023-03-17T00:31:32.831Z,13.90
2023-03-17T00:34:06.009Z,14.30
2023-03-17T00:36:38.765Z,13.10
2023-03-17T00:41:44.790Z,14.70
2023-03-17T00:44:17.576Z,15.10
2023-03-17T00:49:22.948Z,14.60
2023-03-17T00:51:55.717Z,15.40
2023-03-17T00:54:28.027Z,13.20
2023-03-17T00:57:00.403Z,11.90
2023-03-17T00:59:37.317Z,17.30
2023-03-17T01:02:10.561Z,13.50
2023-03-17T01:04:49.895Z,13.00
2023-03-17T01:07:25.568Z,12.90
2023-03-17T01:12:29.272Z,15.30
2023-03-17T01:15:01.656Z,15.00
2023-03-17T01:17:34.194Z,14.90
2023-03-17T01:20:08.152Z,14.70
2023-03-17T01:22:40.639Z,14.40
2023-03-17T01:25:14.015Z,16.40
2023-03-17T01:27:46.871Z,17.40
2023-03-17T01:30:27.556Z,16.30
2023-03-17T01:33:01.007Z,13.80
2023-03-17T01:35:33.804Z,12.20
2023-03-17T01:38:06.399Z,11.90
2023-03-17T01:40:43.930Z,13.80
2023-03-17T01:43:24.729Z,16.90
2023-03-17T01:46:29.679Z,14.60
2023-03-17T01:49:19.445Z,12.40
2023-03-17T01:51:57.688Z,14.70
2023-03-17T01:54:35.706Z,13.40
2023-03-17T01:57:13.666Z,16.80
2023-03-17T01:59:50.960Z,13.80
2023-03-17T02:02:26.171Z,15.30
2023-03-17T02:04:58.646Z,12.60
2023-03-17T02:07:31.501Z,13.70
2023-03-17T02:10:04.578Z,12.70
2023-03-17T02:12:37.552Z,11.60
2023-03-17T02:15:11.487Z,12.10
2023-03-17T02:17:43.828Z,13.30
2023-03-17T02:20:30.480Z,12.70
2023-03-17T02:23:04.358Z,11.10
2023-03-17T02:25:40.146Z,13.30
2023-03-17T02:28:14.995Z,13.40
2023-03-17T02:30:47.393Z,14.00
2023-03-17T02:33:20.325Z,14.60
2023-03-17T02:35:53.121Z,12.70
2023-03-17T02:38:25.452Z,11.50
2023-03-17T02:40:57.821Z,13.20
2023-03-17T02:43:30.070Z,15.70
2023-03-17T02:46:02.559Z,12.20
2023-03-17T02:48:35.632Z,14.20
2023-03-17T02:51:08.469Z,11.70
2023-03-17T02:53:40.760Z,13.80
2023-03-17T02:56:13.496Z,12.90
2023-03-17T02:58:45.807Z,12.10
2023-03-17T03:01:18.337Z,13.10
2023-03-17T03:06:23.737Z,14.20
2023-03-17T03:08:56.053Z,13.50
2023-03-17T03:11:29.509Z,11.30
2023-03-17T03:14:01.754Z,13.30
2023-03-17T03:16:34.091Z,15.00
2023-03-17T03:19:07.087Z,13.20
2023-03-17T03:21:39.501Z,15.50
2023-03-17T03:24:11.995Z,13.50
2023-03-17T03:26:44.392Z,10.90
2023-03-17T03:29:16.987Z,12.90
2023-03-17T03:34:21.301Z,10.90
2023-03-17T03:39:24.274Z,10.90
2023-03-17T03:41:58.390Z,11.50
2023-03-17T03:44:31.139Z,13.50
2023-03-17T03:47:03.577Z,12.70
2023-03-17T03:49:36.020Z,13.00
2023-03-17T03:52:09.265Z,12.30
2023-03-17T03:54:41.553Z,12.10
2023-03-17T03:57:14.075Z,13.10
2023-03-17T03:59:46.500Z,14.60
2023-03-17T04:02:19.078Z,10.60
2023-03-17T04:04:51.880Z,11.10
2023-03-17T04:09:54.833Z,11.70
2023-03-17T04:12:27.245Z,12.10
2023-03-17T04:14:59.540Z,15.80
2023-03-17T04:17:31.843Z,11.80
2023-03-17T04:20:04.534Z,12.10
2023-03-17T04:25:08.903Z,14.30
2023-03-17T04:27:41.285Z,12.70
2023-03-17T04:30:17.910Z,12.80
2023-03-17T04:32:50.444Z,11.50
2023-03-17T04:35:24.585Z,10.90
2023-03-17T04:37:57.050Z,10.30
2023-03-17T04:40:29.617Z,14.90
2023-03-17T04:43:03.563Z,15.40
2023-03-17T04:45:36.213Z,20.30
2023-03-17T04:48:09.036Z,13.40
2023-03-17T04:50:42.552Z,12.40
2023-03-17T04:53:14.905Z,12.90
2023-03-17T04:55:48.030Z,14.70
2023-03-17T04:58:30.432Z,14.60
2023-03-17T05:01:03.916Z,12.20
2023-03-17T05:06:08.694Z,12.30
2023-03-17T05:08:41.254Z,15.40
2023-03-17T05:11:14.130Z,13.90
2023-03-17T05:13:46.626Z,15.10
2023-03-17T05:16:19.149Z,15.80
2023-03-17T05:18:51.500Z,17.10
2023-03-17T05:21:23.746Z,13.70
2023-03-17T05:23:56.123Z,16.70
2023-03-17T05:26:28.592Z,15.30
2023-03-17T05:29:01.034Z,14.40
2023-03-17T05:31:33.541Z,15.60
2023-03-17T05:34:06.324Z,13.90
2023-03-17T05:36:38.752Z,15.00
2023-03-17T05:39:12.808Z,16.00
2023-03-17T05:41:47.263Z,15.40
2023-03-17T05:44:20.541Z,14.80
2023-03-17T05:46:52.844Z,15.70
2023-03-17T05:49:25.347Z,17.10
2023-03-17T05:51:57.728Z,15.60
2023-03-17T05:54:30.011Z,15.40
2023-03-17T05:57:03.057Z,15.60
2023-03-17T05:59:36.353Z,16.70
2023-03-17T06:02:08.887Z,17.70
2023-03-17T06:04:41.812Z,18.00
2023-03-17T06:07:14.357Z,18.30
2023-03-17T06:12:17.621Z,17.00
2023-03-17T06:14:50.014Z,15.80
2023-03-17T06:17:22.345Z,16.50
2023-03-17T06:19:54.772Z,16.10
2023-03-17T06:22:27.019Z,15.80
2023-03-17T06:24:59.630Z,15.00
2023-03-17T06:30:03.417Z,16.10
2023-03-17T06:35:08.244Z,14.30
2023-03-17T06:37:40.692Z,17.50
2023-03-17T06:40:16.306Z,18.70
2023-03-17T06:42:48.844Z,18.00
2023-03-17T06:45:21.198Z,16.20
2023-03-17T06:47:53.587Z,12.40
2023-03-17T06:50:26.061Z,16.30
2023-03-17T06:52:58.590Z,16.70
2023-03-17T06:55:32.138Z,13.60
2023-03-17T06:58:05.153Z,16.10
2023-03-17T07:00:38.448Z,14.40
2023-03-17T07:03:11.405Z,8.40
2023-03-17T07:05:43.873Z,6.20
2023-03-17T07:08:16.378Z,5.70
2023-03-17T07:10:49.107Z,5.10
2023-03-17T07:13:22.461Z,6.00
2023-03-17T07:15:55.607Z,5.10
2023-03-17T07:18:28.095Z,5.10
2023-03-17T07:21:00.827Z,5.10
2023-03-17T07:26:04.318Z,7.00
2023-03-17T07:28:36.727Z,6.60
2023-03-17T07:31:09.709Z,9.70
2023-03-17T07:33:42.158Z,8.20
2023-03-17T07:36:16.048Z,8.10
2023-03-17T07:38:48.876Z,9.80
2023-03-17T07:41:22.156Z,9.30
2023-03-17T07:43:54.421Z,9.10
2023-03-17T07:46:28.022Z,10.00
2023-03-17T07:49:00.453Z,8.10
2023-03-17T07:51:32.865Z,8.50
2023-03-17T07:54:06.594Z,8.20
2023-03-17T07:56:39.293Z,11.00
2023-03-17T08:01:43.338Z,9.70
2023-03-17T08:04:15.901Z,9.80
2023-03-17T08:06:48.402Z,8.20
2023-03-17T08:09:21.231Z,7.10
2023-03-17T08:11:53.645Z,8.80
2023-03-17T08:14:26.058Z,11.50
2023-03-17T08:16:58.924Z,9.50
2023-03-17T08:19:31.744Z,6.70
2023-03-17T08:22:04.051Z,8.30
2023-03-17T08:24:37.137Z,15.70
2023-03-17T08:27:09.682Z,6.30
2023-03-17T08:32:13.557Z,8.00
2023-03-17T08:34:46.321Z,8.90
2023-03-17T08:37:18.649Z,9.30
2023-03-17T08:39:51.322Z,8.40
2023-03-17T08:42:23.658Z,8.90
2023-03-17T08:44:56.035Z,9.30
2023-03-17T08:47:28.451Z,9.80
2023-03-17T08:52:33.864Z,7.60
2023-03-17T08:55:08.934Z,10.40
2023-03-17T08:57:41.392Z,8.20
2023-03-17T09:00:20.393Z,10.00
2023-03-17T09:02:52.798Z,7.70
2023-03-17T09:05:25.268Z,11.10
2023-03-17T09:07:57.647Z,7.50
2023-03-17T09:10:30.636Z,8.40
2023-03-17T09:13:04.531Z,9.00
2023-03-17T09:15:37.964Z,10.10
2023-03-17T09:18:10.675Z,7.70
2023-03-17T09:23:14.277Z,8.60
2023-03-17T09:25:47.254Z,8.20
2023-03-17T09:28:20.063Z,11.60
2023-03-17T09:30:53.016Z,8.80
2023-03-17T09:33:25.942Z,10.80
2023-03-17T09:35:58.804Z,8.20
2023-03-17T09:38:31.888Z,7.50
2023-03-17T09:41:13.513Z,7.40
2023-03-17T09:43:51.084Z,9.10
2023-03-17T09:46:37.054Z,8.30
2023-03-17T09:49:10.854Z,13.10
2023-03-17T09:51:43.595Z,8.60
2023-03-17T09:54:20.391Z,11.80
2023-03-17T09:56:56.527Z,9.70
2023-03-17T09:59:40.559Z,9.20
2023-03-17T10:02:20.414Z,12.60
2023-03-17T10:04:53.419Z,7.60
2023-03-17T10:07:29.826Z,7.10
2023-03-17T10:10:05.274Z,6.40
2023-03-17T10:12:47.042Z,7.10
2023-03-17T10:15:25.284Z,7.30
2023-03-17T10:17:58.071Z,6.90
2023-03-17T10:20:32.399Z,6.00
2023-03-17T10:23:06.569Z,7.20
2023-03-17T10:25:39.624Z,7.30
2023-03-17T10:28:22.992Z,8.00
2023-03-17T10:30:55.965Z,5.90
2023-03-17T10:33:28.794Z,7.90
2023-03-17T10:36:10.706Z,6.60
2023-03-17T10:38:43.369Z,7.00
2023-03-17T10:41:17.584Z,5.60
2023-03-17T10:43:51.952Z,7.00
2023-03-17T10:46:26.721Z,6.10
2023-03-17T10:49:05.694Z,7.40
2023-03-17T10:51:40.800Z,5.80
2023-03-17T10:54:18.890Z,4.20
2023-03-17T10:56:59.174Z,5.80
2023-03-17T10:59:33.938Z,6.40
2023-03-17T11:02:15.554Z,4.90
2023-03-17T11:04:48.501Z,8.60
2023-03-17T11:07:23.205Z,6.00
2023-03-17T11:10:01.563Z,5.30
2023-03-17T11:12:40.178Z,4.40
2023-03-17T11:15:16.681Z,4.90
2023-03-17T11:17:55.153Z,5.10
2023-03-17T11:20:47.456Z,5.70
2023-03-17T11:23:30.120Z,6.10
2023-03-17T11:26:09.253Z,5.70
2023-03-17T11:28:44.665Z,7.30
2023-03-17T11:31:24.526Z,7.00
2023-03-17T11:34:02.663Z,6.90
2023-03-17T11:36:44.837Z,5.30
2023-03-17T11:39:22.108Z,5.10
2023-03-17T11:42:08.303Z,4.10
2023-03-17T11:45:01.436Z,4.00
2023-03-17T11:47:47.012Z,5.10
2023-03-17T11:50:28.029Z,4.70
2023-03-17T11:53:11.805Z,8.00
2023-03-17T11:55:48.928Z,11.70
2023-03-17T11:58:30.530Z,10.40
2023-03-17T12:01:04.515Z,11.90
2023-03-17T12:03:43.428Z,8.10
2023-03-17T12:06:20.636Z,9.20
2023-03-17T12:08:56.500Z,8.30
2023-03-17T12:11:31.945Z,7.90
2023-03-17T12:14:06.085Z,9.80
2023-03-17T12:16:42.593Z,13.00
2023-03-17T12:19:17.802Z,11.30
2023-03-17T12:21:54.445Z,12.50
2023-03-17T12:24:31.969Z,11.80
2023-03-17T12:27:07.720Z,10.40
2023-03-17T12:29:47.525Z,8.90
2023-03-17T12:32:23.796Z,8.00
2023-03-17T12:34:58.861Z,8.60
2023-03-17T12:37:32.095Z,9.10
2023-03-17T12:40:08.829Z,11.50
2023-03-17T12:42:52.493Z,10.10
2023-03-17T12:45:56.081Z,7.90
2023-03-17T12:48:58.308Z,10.30
2023-03-17T12:51:41.997Z,11.40
2023-03-17T12:54:17.238Z,10.20
2023-03-17T12:56:50.619Z,16.70
2023-03-17T12:59:26.175Z,8.80
2023-03-17T13:02:00.347Z,7.90
2023-03-17T13:04:35.639Z,7.90
2023-03-17T13:07:10.608Z,7.00
2023-03-17T13:09:53.144Z,8.10
2023-03-17T13:12:52.990Z,9.70
2023-03-17T13:15:30.656Z,9.90
2023-03-17T13:18:31.438Z,9.80
2023-03-17T13:21:16.353Z,11.60
2023-03-17T13:23:55.060Z,11.90
2023-03-17T13:26:55.267Z,8.40
2023-03-17T13:29:38.949Z,6.60
2023-03-17T13:32:35.185Z,10.00
2023-03-17T13:35:38.970Z,8.60
2023-03-17T13:38:25.551Z,9.00
2023-03-17T13:41:09.634Z,7.30
2023-03-17T13:43:51.986Z,8.50
2023-03-17T13:46:35.032Z,7.40
2023-03-17T13:49:21.461Z,7.90
2023-03-17T13:52:00.444Z,7.30
2023-03-17T13:54:42.327Z,8.70
2023-03-17T13:57:29.493Z,8.10
2023-03-17T14:00:17.600Z,8.80
2023-03-17T14:02:51.349Z,6.90
2023-03-17T14:05:29.285Z,8.90
2023-03-17T14:08:04.539Z,5.90
2023-03-17T14:10:37.421Z,7.50
2023-03-17T14:13:22.107Z,5.10
2023-03-17T14:15:57.613Z,5.00
2023-03-17T14:18:38.424Z,6.60
2023-03-17T14:21:24.162Z,4.60
2023-03-17T14:24:04.279Z,5.30
2023-03-17T14:26:37.095Z,6.20
2023-03-17T14:29:11.290Z,6.20
2023-03-17T14:31:44.219Z,10.60
2023-03-17T14:34:17.677Z,6.40
2023-03-17T14:36:50.039Z,7.80
2023-03-17T14:39:27.244Z,6.30
2023-03-17T14:42:05.929Z,6.30
2023-03-17T14:44:42.326Z,7.20
2023-03-17T14:47:21.074Z,7.60
2023-03-17T14:49:54.373Z,6.20
2023-03-17T14:52:29.529Z,7.30
2023-03-17T14:55:02.245Z,6.90
2023-03-17T14:57:38.951Z,5.40
2023-03-17T15:00:36.631Z,7.50
2023-03-17T15:03:20.522Z,7.00
2023-03-17T15:06:04.053Z,6.20
2023-03-17T15:08:49.169Z,6.30
2023-03-17T15:11:25.261Z,8.30
2023-03-17T15:14:07.340Z,6.20
2023-03-17T15:16:39.874Z,8.90
2023-03-17T15:21:50.706Z,6.50
2023-03-17T15:24:30.006Z,5.50
2023-03-17T15:27:07.293Z,8.60
2023-03-17T15:29:39.689Z,8.50
2023-03-17T15:32:16.664Z,8.70
2023-03-17T15:34:49.003Z,9.00
2023-03-17T15:37:23.489Z,9.00
2023-03-17T15:39:56.747Z,8.20
2023-03-17T15:42:31.081Z,7.10
2023-03-17T15:45:03.993Z,12.50
2023-03-17T15:47:40.127Z,8.10
2023-03-17T15:50:19.417Z,8.80
2023-03-17T15:52:54.148Z,11.80
2023-03-17T15:55:29.586Z,13.00
2023-03-17T15:58:01.973Z,8.60
2023-03-17T16:00:34.917Z,11.30
2023-03-17T16:03:14.813Z,11.90
2023-03-17T16:05:47.194Z,9.20
2023-03-17T16:08:19.606Z,8.60
2023-03-17T16:10:52.952Z,9.10
2023-03-17T16:13:25.382Z,10.50
2023-03-17T16:15:59.466Z,8.20
2023-03-17T16:18:34.828Z,10.40
2023-03-17T16:21:07.985Z,9.60
2023-03-17T16:23:40.356Z,12.00
2023-03-17T16:26:15.990Z,11.70
2023-03-17T16:28:50.109Z,9.70
2023-03-17T16:31:25.614Z,11.90
2023-03-17T16:33:58.240Z,11.20
2023-03-17T16:36:30.650Z,13.40
2023-03-17T16:39:05.957Z,12.10
2023-03-17T16:41:38.349Z,11.60
2023-03-17T16:44:14.288Z,11.40
2023-03-17T16:46:46.778Z,12.80
2023-03-17T16:51:50.790Z,15.90
2023-03-17T16:54:23.427Z,13.40
2023-03-17T16:56:55.926Z,15.00
2023-03-17T17:02:03.835Z,9.90
2023-03-17T17:04:38.616Z,14.90
2023-03-17T17:07:11.036Z,11.90
2023-03-17T17:09:43.478Z,10.60
2023-03-17T17:12:15.916Z,14.10
2023-03-17T17:14:48.328Z,13.10
2023-03-17T17:17:20.708Z,10.90
2023-03-17T17:19:53.142Z,10.70
2023-03-17T17:22:25.626Z,9.70
2023-03-17T17:27:28.763Z,12.90
2023-03-17T17:30:01.092Z,11.90
2023-03-17T17:32:33.918Z,13.40
2023-03-17T17:35:07.019Z,11.20
2023-03-17T17:37:39.786Z,9.70
2023-03-17T17:40:17.746Z,9.80
2023-03-17T17:42:50.371Z,10.50
2023-03-17T17:45:23.369Z,11.80
2023-03-17T17:47:55.946Z,12.50
2023-03-17T17:53:05.471Z,11.70
2023-03-17T17:55:37.930Z,10.80
2023-03-17T17:58:10.809Z,12.00
2023-03-17T18:00:43.583Z,12.80
2023-03-17T18:03:16.057Z,12.20
2023-03-17T18:05:48.397Z,13.50
2023-03-17T18:08:20.929Z,14.70
2023-03-17T18:10:53.343Z,12.10
2023-03-17T18:13:25.887Z,14.90
2023-03-17T18:15:58.215Z,12.60
2023-03-17T18:18:30.577Z,13.10
2023-03-17T18:21:04.288Z,13.20
2023-03-17T18:23:36.714Z,13.10
2023-03-17T18:26:09.570Z,14.60
2023-03-17T18:28:42.011Z,12.70
2023-03-17T18:31:17.185Z,13.00
2023-03-17T18:33:51.322Z,12.80
2023-03-17T18:36:24.413Z,16.30
2023-03-17T18:38:56.897Z,15.00
2023-03-17T18:41:29.840Z,13.50
2023-03-17T18:44:02.568Z,16.80
2023-03-17T18:46:34.881Z,17.90
2023-03-17T18:49:08.909Z,13.40
2023-03-17T18:51:41.269Z,12.20
2023-03-17T18:54:13.885Z,13.90
2023-03-17T18:59:16.960Z,13.50
2023-03-17T19:01:49.540Z,12.30
2023-03-17T19:04:22.117Z,14.90
2023-03-17T19:06:54.587Z,13.30
2023-03-17T19:09:27.293Z,12.40
2023-03-17T19:14:30.656Z,12.00
2023-03-17T19:19:35.463Z,16.20
2023-03-17T19:22:08.061Z,14.10
2023-03-17T19:27:11.560Z,13.60
2023-03-17T19:29:44.000Z,15.40
2023-03-17T19:32:17.304Z,15.90
2023-03-17T19:34:49.927Z,15.50
2023-03-17T19:37:22.690Z,18.10
2023-03-17T19:39:55.091Z,18.00
2023-03-17T19:42:27.783Z,14.30
2023-03-17T19:45:00.511Z,15.60
2023-03-17T19:47:34.422Z,13.90
2023-03-17T19:50:07.461Z,14.40
2023-03-17T19:52:39.833Z,15.80
2023-03-17T19:55:13.066Z,10.70
2023-03-17T19:57:45.681Z,10.00
2023-03-17T20:00:19.554Z,9.60
2023-03-17T20:02:52.789Z,7.80
2023-03-17T20:05:25.276Z,10.10
2023-03-17T20:07:57.680Z,7.70
2023-03-17T20:10:31.313Z,12.50
2023-03-17T20:13:03.925Z,7.60
2023-03-17T20:15:36.794Z,6.00
2023-03-17T20:18:09.388Z,9.80
2023-03-17T20:23:12.946Z,8.90
2023-03-17T20:28:16.794Z,6.60
2023-03-17T20:30:50.315Z,4.90
2023-03-17T20:33:22.954Z,5.50
